Airfield :
LOGIN :

Register | Disclaimer

   EN    FR    IT 

 










Legend :    VFR   Marginal VFR   IFR   Intensive IFR   Very Intensive IFR
Visi :
Ceiling :
>= 8 km
>= 3000ft
5 to 8 km
1000 to 3000 ft
1500m to 5 km
500 to 1000 ft
800 to 1500m
200 to 500 ft
< 800m
< 200 ft
Symbols :   Thunderstorms  Fog  Heavy snow  Heavy precipitations  Wind > 20 kt
SIGMETs :     Misc.  Thunderstorms  Icing  Turbulence  Mountain Waves  Volcanic Ashes







- Airport Elevation : 1234 ft
- IATA code : LUX


ELLX - Luxembourg Findel

CURRENT METAR :
  • 230450Z 16010KT CAVOK 07/06 Q1005 NOSIG

EXPIRED METARs :
  • 230420Z 17009KT 140V200 CAVOK 07/06 Q1005 NOSIG
  • 230350Z 17010KT 140V200 CAVOK 07/06 Q1005 NOSIG
  • 230320Z 17008KT 130V190 CAVOK 06/05 Q1005 NOSIG
  • 230250Z 16007KT 130V190 CAVOK 06/05 Q1006 NOSIG
  • 230220Z AUTO 16007KT 9999 NCD 06/05 Q1006 NOSIG

TAF TAF ELLX
Valid from the 23 at 00:00 until the 24 at 06:00 UTC


222300Z 2300/2406 18008KT CAVOK
BECMG 2303/2306 20012G25KT
TEMPO 2308/2315 23017G35KT
BECMG 2312/2315 9999 BKN035
TEMPO 2318/2406 RA BKN015
ATIS : +352 4798 27300
Met : +352 4798 27010 / 27050
No reported NOTAMs for that airfield.
3 SIGMETs reported for the Brussels FIR (EBBU) :
 
Severe turbulence
EBBU SIGMET 03 VALID 230300/230700 EBBR
EBBU BRUSSELS FIR SEV TURB FCST W OF E005 SFC/FL050 MOV NE 15KT NC=
SIGMET 01 cancelation
EBBU SIGMET 02 VALID 230300/230700 EBBR
EBBU BRUSSELS FIR CNL SIGMET 01 VALID 230300/230700=
SIGMET 01  CANCELED :
Severe turbulence
EBBU SIGMET 01 VALID 230300/230700 EBBR
EBBU BRUSSELS FIR SEV TURB FCST W E005 SFC/FL050 MOV NE 15KT NC=



MET'MAP, your aeronautical weather chart ! - Copyright ORBIFLY December 2007 - Disclaimer

ORBIFLY MET'MAP TEAM :

Programming & Development : Alexandra Zaïnal
Concept & Development : Baudouin d'Aumeries
Co-Development & Prog : Marc-Olivier Méhu
Technical & hardware support : Manuel Goepfert

Contact : metmap@orbifly.com




SOURCES & CREDITS :

   NOAA